Time;durP1;ratioP1;P1;durP2;ratioP2;P2;SDS_P1;SDS_P2;PMS_P1;PMS_P2;Temp;Humidity;BMP_temperature;BMP_pressure;BME280_temperature;BME280_humidity;BME280_pressure;Samples;Min_cycle;Max_cycle;Signal;HPM_P1;HPM_P2
2021/12/14 00:00:54;;;;;;;30.48;13.13;;;;;;;-2.74;82.96;101770.64;3403373;81;21923;-76
2021/12/14 00:05:48;;;;;;;33.58;18.52;;;;;;;-2.86;82.66;101772.14;3402063;81;21038;-74
2021/12/14 00:15:32;;;;;;;54.70;24.85;;;;;;;-2.92;83.21;101761.41;3394250;81;21602;-75
2021/12/14 00:20:50;;;;;;;49.33;22.50;;;;;;;-2.86;83.37;101764.50;3401292;81;20955;-74
2021/12/14 00:25:50;;;;;;;52.55;24.05;;;;;;;-2.81;83.03;101777.22;3426949;81;21169;-75
2021/12/14 00:30:43;;;;;;;54.15;23.57;;;;;;;-2.88;83.05;101769.81;3424550;81;20960;-75
2021/12/14 00:35:35;;;;;;;51.63;25.00;;;;;;;-2.85;83.12;101777.72;3428173;83;21000;-74
2021/12/14 00:40:34;;;;;;;45.15;22.70;;;;;;;-2.81;83.09;101781.05;3390196;81;20959;-75
2021/12/14 00:45:29;;;;;;;62.08;26.27;;;;;;;-2.80;83.08;101782.84;3446250;81;21194;-75
2021/12/14 00:50:24;;;;;;;62.35;23.55;;;;;;;-2.79;83.09;101792.28;3411972;81;21152;-75
2021/12/14 00:55:28;;;;;;;53.68;23.98;;;;;;;-2.79;82.98;101788.82;3388708;81;20941;-75
2021/12/14 01:00:24;;;;;;;43.70;22.32;;;;;;;-2.81;83.03;101798.86;3445650;81;20932;-75
2021/12/14 01:05:31;;;;;;;47.97;22.83;;;;;;;-2.76;83.08;101796.73;3441171;82;20995;-75
2021/12/14 01:10:37;;;;;;;44.08;23.38;;;;;;;-2.78;83.31;101801.69;3441113;81;21657;-75
2021/12/14 01:15:59;;;;;;;59.25;24.65;;;;;;;-2.74;83.41;101806.67;3462823;81;21326;-75
2021/12/14 01:20:50;;;;;;;44.60;21.60;;;;;;;-2.76;83.28;101797.62;3452230;81;20930;-74
2021/12/14 01:25:47;;;;;;;45.58;18.92;;;;;;;-2.77;83.41;101789.48;3409517;81;20925;-75
2021/12/14 01:31:03;;;;;;;56.15;23.38;;;;;;;-2.73;83.44;101790.26;3453235;81;20999;-75
2021/12/14 01:35:44;;;;;;;58.15;26.80;;;;;;;-2.74;83.35;101788.45;3467841;81;20963;-74
2021/12/14 01:40:53;;;;;;;50.13;24.27;;;;;;;-2.72;83.48;101786.97;3440805;82;22516;-74
2021/12/14 01:45:47;;;;;;;58.00;25.15;;;;;;;-2.66;83.43;101786.95;3437696;82;21018;-75
2021/12/14 01:50:48;;;;;;;55.92;26.30;;;;;;;-2.65;83.32;101782.39;3434802;81;22376;-75
2021/12/14 01:55:51;;;;;;;55.90;26.40;;;;;;;-2.64;83.44;101786.74;3453650;81;21012;-76
2021/12/14 02:00:43;;;;;;;54.88;24.67;;;;;;;-2.62;83.30;101783.95;3431824;81;22276;-75
2021/12/14 02:05:40;;;;;;;47.90;19.43;;;;;;;-2.66;83.26;101783.14;3431559;83;21864;-75
2021/12/14 02:10:36;;;;;;;53.90;24.10;;;;;;;-2.74;83.21;101749.00;3429673;81;21006;-75
2021/12/14 02:15:42;;;;;;;52.48;24.30;;;;;;;-2.74;83.23;101755.36;3429004;81;21819;-75
2021/12/14 02:20:38;;;;;;;49.45;23.20;;;;;;;-2.73;83.38;101763.92;3460337;81;21550;-75
2021/12/14 02:25:30;;;;;;;47.60;23.15;;;;;;;-2.74;83.50;101768.09;3421747;81;21046;-75
2021/12/14 02:30:27;;;;;;;43.75;19.95;;;;;;;-2.73;83.46;101760.98;3429968;81;21070;-75
2021/12/14 02:35:23;;;;;;;39.75;18.37;;;;;;;-2.76;83.12;101766.19;3472331;81;21502;-74
2021/12/14 02:40:20;;;;;;;46.58;20.70;;;;;;;-2.82;83.19;101768.21;3399296;82;20936;-75
2021/12/14 02:45:12;;;;;;;47.78;21.37;;;;;;;-2.87;83.18;101767.80;3455660;81;20925;-75
2021/12/14 02:50:07;;;;;;;45.48;21.82;;;;;;;-2.88;83.47;101763.45;3417411;81;21497;-75
2021/12/14 02:55:03;;;;;;;56.15;25.10;;;;;;;-2.89;83.38;101764.23;3399256;82;21187;-75
2021/12/14 02:59:57;;;;;;;49.45;23.87;;;;;;;-2.85;83.58;101763.73;3428334;82;21031;-75
2021/12/14 03:05:00;;;;;;;45.20;22.48;;;;;;;-2.85;83.34;101751.00;3403616;83;20931;-74
2021/12/14 03:10:06;;;;;;;46.60;21.52;;;;;;;-2.91;83.14;101758.11;3419701;83;21018;-75
2021/12/14 03:15:12;;;;;;;46.88;21.90;;;;;;;-2.99;83.11;101751.45;3414094;83;20993;-74
2021/12/14 03:20:24;;;;;;;39.15;20.95;;;;;;;-2.94;83.37;101762.92;3420646;83;21273;-75
2021/12/14 03:25:19;;;;;;;42.95;21.30;;;;;;;-2.93;83.18;101763.06;3404658;82;32583;-75
2021/12/14 03:30:36;;;;;;;47.60;19.75;;;;;;;-2.95;83.01;101773.85;3355965;82;20958;-74
2021/12/14 03:35:54;;;;;;;33.48;18.42;;;;;;;-2.97;82.89;101764.84;3405708;82;21014;-74
2021/12/14 03:40:57;;;;;;;29.55;13.03;;;;;;;-2.96;82.96;101764.45;3331690;84;20923;-75
2021/12/14 03:45:50;;;;;;;38.45;17.75;;;;;;;-3.04;82.54;101760.32;3327244;86;22037;-75
2021/12/14 03:50:43;;;;;;;42.48;21.10;;;;;;;-3.12;82.92;101751.63;3353692;84;21001;-74
2021/12/14 03:55:40;;;;;;;40.88;20.12;;;;;;;-3.10;82.89;101750.50;3391512;84;20990;-75
2021/12/14 04:00:40;;;;;;;46.20;21.62;;;;;;;-3.15;82.91;101740.30;3389109;83;21016;-75
2021/12/14 04:05:31;;;;;;;46.10;21.35;;;;;;;-3.16;82.81;101745.77;3354465;83;21002;-75
2021/12/14 04:10:29;;;;;;;45.15;20.97;;;;;;;-3.19;82.85;101733.16;3360562;84;21042;-76
2021/12/14 04:15:21;;;;;;;37.83;19.42;;;;;;;-3.20;82.92;101736.09;3398099;83;21506;-74
2021/12/14 04:20:30;;;;;;;29.72;13.58;;;;;;;-3.23;82.86;101737.08;3407706;83;21435;-75
2021/12/14 04:25:28;;;;;;;33.88;17.07;;;;;;;-3.25;82.94;101742.42;3449550;83;20939;-74
2021/12/14 04:30:23;;;;;;;33.80;15.05;;;;;;;-3.28;82.86;101747.23;3456124;82;20935;-76
2021/12/14 04:35:17;;;;;;;34.85;18.30;;;;;;;-3.27;82.91;101736.31;3412921;83;21270;-74
2021/12/14 04:55:45;;;;;;;34.10;15.72;;;;;;;-3.25;82.96;101723.34;3287344;86;21024;-75
2021/12/14 05:00:47;;;;;;;34.33;17.75;;;;;;;-3.28;82.88;101724.33;3338622;83;21021;-75
2021/12/14 05:05:57;;;;;;;31.00;14.58;;;;;;;-3.25;83.07;101732.25;3343206;83;21441;-74
2021/12/14 05:10:54;;;;;;;27.15;14.13;;;;;;;-3.32;82.77;101743.52;3268359;86;21601;-75
2021/12/14 05:15:46;;;;;;;24.70;13.22;;;;;;;-3.36;82.60;101743.09;3275131;85;21020;-75
2021/12/14 05:20:43;;;;;;;25.23;13.85;;;;;;;-3.50;82.42;101746.97;3341054;84;20956;-76
2021/12/14 05:25:38;;;;;;;29.32;14.68;;;;;;;-3.54;82.45;101732.17;3271866;84;21499;-76
2021/12/14 05:30:37;;;;;;;26.15;13.00;;;;;;;-3.57;82.59;101739.16;3275963;85;20994;-75
2021/12/14 05:35:35;;;;;;;30.10;13.90;;;;;;;-3.58;82.50;101737.36;3288854;85;21063;-75
2021/12/14 05:45:27;;;;;;;36.95;16.62;;;;;;;-3.61;82.68;101726.02;3289213;85;20994;-75
2021/12/14 05:50:25;;;;;;;40.73;19.32;;;;;;;-3.61;82.78;101732.02;3235202;85;21234;-75
2021/12/14 05:55:24;;;;;;;29.48;15.48;;;;;;;-3.56;82.81;101726.98;3367661;84;20990;-75
2021/12/14 06:00:17;;;;;;;32.60;15.65;;;;;;;-3.59;82.47;101724.16;3335855;84;20967;-75
2021/12/14 06:05:16;;;;;;;36.53;15.88;;;;;;;-3.61;82.46;101723.12;3326767;85;21000;-74
2021/12/14 06:10:11;;;;;;;28.20;15.63;;;;;;;-3.60;82.53;101722.35;3348303;85;20937;-73
2021/12/14 06:15:13;;;;;;;31.68;14.65;;;;;;;-3.68;82.36;101719.52;3325446;84;21501;-73
2021/12/14 06:20:18;;;;;;;30.50;14.35;;;;;;;-3.66;82.69;101718.88;3327682;85;21000;-74
2021/12/14 06:25:16;;;;;;;37.00;17.40;;;;;;;-3.65;82.71;101718.50;3320933;85;21015;-74
2021/12/14 06:30:12;;;;;;;27.48;14.80;;;;;;;-3.67;82.51;101709.84;3323644;84;21506;-74
2021/12/14 06:35:11;;;;;;;31.48;16.87;;;;;;;-3.68;82.43;101713.16;3328825;84;21505;-73
2021/12/14 06:40:11;;;;;;;29.07;13.70;;;;;;;-3.73;82.36;101704.23;3360684;84;21431;-74
2021/12/14 06:45:25;;;;;;;28.38;15.13;;;;;;;-3.76;82.42;101703.94;3381996;83;21013;-74
2021/12/14 06:50:23;;;;;;;35.70;17.15;;;;;;;-3.76;82.37;101693.78;3350614;84;21545;-74
2021/12/14 06:55:24;;;;;;;42.73;19.42;;;;;;;-3.76;82.54;101695.05;3362261;83;20945;-74
2021/12/14 07:00:35;;;;;;;38.15;16.45;;;;;;;-3.74;82.51;101704.58;3306148;85;21466;-74
2021/12/14 07:05:30;;;;;;;30.48;16.10;;;;;;;-3.66;82.51;101706.56;3306594;85;21339;-74
2021/12/14 07:10:23;;;;;;;30.02;15.98;;;;;;;-3.72;82.14;101696.74;3268499;85;20996;-73
2021/12/14 07:15:25;;;;;;;33.35;17.37;;;;;;;-3.65;82.32;101695.63;3253116;86;21581;-74
2021/12/14 07:20:31;;;;;;;35.60;18.40;;;;;;;-3.61;82.28;101693.89;3342491;85;20993;-74
2021/12/14 07:25:36;;;;;;;34.80;18.87;;;;;;;-3.57;82.16;101692.13;3353906;84;20961;-74
2021/12/14 07:30:35;;;;;;;40.92;18.60;;;;;;;-3.42;82.43;101691.70;3313099;85;21196;-74
2021/12/14 07:35:37;;;;;;;35.43;17.77;;;;;;;-3.39;82.01;101694.14;3366028;83;21108;-74
2021/12/14 07:40:39;;;;;;;27.42;13.20;;;;;;;-3.42;81.69;101688.77;3309760;84;20992;-73
2021/12/14 07:45:30;;;;;;;34.38;17.40;;;;;;;-3.36;81.83;101692.23;3321438;84;21781;-73
2021/12/14 07:50:39;;;;;;;30.70;17.20;;;;;;;-3.39;81.68;101696.68;3322073;84;20953;-74
2021/12/14 07:55:30;;;;;;;37.48;18.95;;;;;;;-3.44;81.58;101694.10;3292499;85;21518;-74
2021/12/14 08:00:28;;;;;;;41.73;19.75;;;;;;;-3.48;81.58;101692.94;3304590;86;20991;-74
2021/12/14 08:05:30;;;;;;;42.58;21.45;;;;;;;-3.51;81.67;101688.84;3341162;84;21447;-74
2021/12/14 08:10:30;;;;;;;47.78;22.65;;;;;;;-3.51;81.77;101695.20;3325494;84;20986;-74
2021/12/14 08:15:30;;;;;;;34.73;18.70;;;;;;;-3.34;82.24;101721.27;3393398;83;20976;-73
2021/12/14 08:20:24;;;;;;;37.67;19.20;;;;;;;-3.25;81.81;101714.44;3384920;83;22142;-75
2021/12/14 08:25:19;;;;;;;33.20;19.17;;;;;;;-3.32;81.68;101712.11;3357447;84;20986;-73
2021/12/14 08:30:15;;;;;;;43.55;20.10;;;;;;;-3.32;81.68;101710.84;3342093;84;20967;-75
2021/12/14 08:35:11;;;;;;;34.90;18.30;;;;;;;-3.24;81.94;101705.15;3378212;83;20959;-76
2021/12/14 08:40:26;;;;;;;30.83;15.57;;;;;;;-3.09;81.92;101711.59;3365553;84;20984;-74
2021/12/14 08:45:26;;;;;;;37.95;20.82;;;;;;;-3.02;81.71;101700.27;3360802;84;20952;-75
2021/12/14 08:50:17;;;;;;;47.03;23.73;;;;;;;-2.93;81.86;101716.38;3321494;83;20987;-76
2021/12/14 08:55:13;;;;;;;40.28;21.40;;;;;;;-2.80;81.76;101721.75;3328082;84;20964;-74
2021/12/14 09:00:13;;;;;;;36.58;18.82;;;;;;;-2.69;81.34;101705.73;3382252;83;20904;-75
2021/12/14 09:05:16;;;;;;;38.80;18.67;;;;;;;-2.66;81.12;101707.67;3352883;83;20982;-75
2021/12/14 09:10:12;;;;;;;42.65;20.77;;;;;;;-2.62;81.33;101702.47;3350591;84;22003;-75
2021/12/14 09:15:12;;;;;;;32.35;18.05;;;;;;;-2.68;81.30;101688.83;3326674;84;26248;-75
2021/12/14 09:20:30;;;;;;;35.00;16.95;;;;;;;-2.55;81.41;101681.47;3386964;83;21434;-77
2021/12/14 09:25:26;;;;;;;35.05;20.10;;;;;;;-2.49;81.46;101681.09;3348803;83;20947;-75
2021/12/14 09:30:22;;;;;;;37.55;20.45;;;;;;;-2.50;81.33;101667.86;3351092;83;22395;-77
2021/12/14 09:35:19;;;;;;;37.58;19.40;;;;;;;-2.53;81.22;101667.59;3339770;84;20990;-74
2021/12/14 09:40:14;;;;;;;;;;;;;;;-2.59;81.31;101667.97;3380969;83;20937;-74
2021/12/14 09:45:17;;;;;;;42.13;23.35;;;;;;;-2.62;81.28;101657.91;3384751;84;20147;-73
2021/12/14 09:50:14;;;;;;;38.00;20.25;;;;;;;-2.69;81.56;101660.30;3341748;83;20974;-74
2021/12/14 09:55:11;;;;;;;53.83;26.77;;;;;;;-2.72;81.58;101657.13;3367820;84;26582;-77
2021/12/14 10:00:08;;;;;;;49.33;24.47;;;;;;;-2.66;81.94;101668.21;3368225;84;21065;-78
2021/12/14 10:05:07;;;;;;;31.97;16.45;;;;;;;-2.61;81.64;101663.49;3354455;83;21531;-76
2021/12/14 10:10:01;;;;;;;52.33;24.63;;;;;;;-2.63;81.41;101646.84;3373126;83;21035;-73
2021/12/14 10:14:57;;;;;;;37.40;16.42;;;;;;;-2.60;81.84;101640.71;3322782;84;21145;-73
2021/12/14 10:19:49;;;;;;;53.70;24.15;;;;;;;-2.61;81.47;101642.77;3356931;83;20974;-74
2021/12/14 10:24:41;;;;;;;55.63;27.75;;;;;;;-2.62;81.70;101633.72;3336444;83;21148;-73
2021/12/14 10:29:32;;;;;;;63.83;29.05;;;;;;;-2.46;81.86;101621.51;3343705;83;21034;-75
2021/12/14 10:34:27;;;;;;;59.95;29.10;;;;;;;-2.34;81.87;101621.26;3315589;83;20949;-75
2021/12/14 10:39:36;;;;;;;59.25;27.20;;;;;;;-2.38;81.60;101619.23;3321406;84;20960;-75
2021/12/14 10:44:16;;;;;;;62.08;31.23;;;;;;;-2.37;81.67;101619.72;3340853;84;21394;-74
2021/12/14 10:49:07;;;;;;;65.32;31.62;;;;;;;-2.30;81.72;101628.38;3306668;83;21033;-74
2021/12/14 10:54:01;;;;;;;55.98;27.13;;;;;;;-2.22;81.57;101617.94;3325450;84;21070;-73
2021/12/14 10:58:57;;;;;;;56.85;29.35;;;;;;;-2.17;81.56;101620.48;3315543;83;20952;-74
2021/12/14 11:03:55;;;;;;;54.63;27.62;;;;;;;-2.14;81.75;101625.45;3359356;84;26590;-75
2021/12/14 11:14:07;;;;;;;74.40;32.53;;;;;;;-2.04;81.68;101617.28;3332149;84;21048;-75
2021/12/14 11:19:06;;;;;;;53.83;27.05;;;;;;;-1.94;81.74;101606.69;3329514;84;20971;-74
2021/12/14 11:23:57;;;;;;;71.53;34.60;;;;;;;-1.96;81.72;101592.94;3355355;83;21473;-71
2021/12/14 11:28:57;;;;;;;79.60;37.83;;;;;;;-1.96;81.84;101587.83;3356590;84;20957;-73
2021/12/14 11:34:02;;;;;;;77.27;36.05;;;;;;;-1.95;81.96;101577.25;3335539;84;21347;-71
2021/12/14 11:39:02;;;;;;;73.02;33.35;;;;;;;-1.96;82.03;101581.86;3364921;84;22029;-75
2021/12/14 11:44:11;;;;;;;65.65;32.83;;;;;;;-2.00;82.17;101577.28;3347818;84;21007;-74
2021/12/14 11:49:04;;;;;;;72.12;34.50;;;;;;;-2.05;82.18;101579.45;3372651;83;20971;-75
2021/12/14 11:53:58;;;;;;;75.78;34.78;;;;;;;-2.00;82.46;101593.45;3332458;84;21016;-75
2021/12/14 11:58:56;;;;;;;71.90;31.80;;;;;;;-2.00;82.42;101587.09;3338312;84;20968;-73
2021/12/14 12:04:05;;;;;;;70.03;33.63;;;;;;;-2.01;82.60;101581.47;3343842;84;21429;-72
2021/12/14 12:14:38;;;;;;;80.62;36.60;;;;;;;-1.98;82.79;101585.55;3358165;83;20968;-75
2021/12/14 12:19:30;;;;;;;65.35;32.05;;;;;;;-1.89;82.87;101583.25;3355126;83;20979;-71
2021/12/14 12:24:42;;;;;;;49.38;25.75;;;;;;;-1.86;82.79;101579.29;3294565;85;20951;-71
2021/12/14 12:29:33;;;;;;;62.53;31.30;;;;;;;-1.90;82.66;101578.91;3338021;84;21057;-71
2021/12/14 12:34:37;;;;;;;66.85;33.00;;;;;;;-1.91;82.82;101576.75;3310626;84;20970;-70
2021/12/14 12:39:31;;;;;;;63.42;31.90;;;;;;;-1.86;82.81;101564.35;3289087;84;20954;-71
2021/12/14 12:44:30;;;;;;;74.25;33.10;;;;;;;-1.88;82.94;101568.45;3348933;84;20996;-73
2021/12/14 12:49:32;;;;;;;64.67;31.35;;;;;;;-1.85;83.03;101544.48;3304180;85;20999;-74
2021/12/14 12:54:35;;;;;;;61.50;31.55;;;;;;;-1.80;82.98;101559.37;3263777;84;21836;-78
2021/12/14 12:59:54;;;;;;;57.88;30.00;;;;;;;-1.80;82.99;101558.49;3329402;86;20983;-73
2021/12/14 13:04:43;;;;;;;66.20;31.60;;;;;;;-1.84;83.00;101549.70;3290176;86;21516;-71
2021/12/14 13:10:02;;;;;;;66.97;34.25;;;;;;;-1.84;83.25;101546.24;3219625;86;21021;-72
2021/12/14 13:14:53;;;;;;;67.67;32.58;;;;;;;-1.81;83.30;101547.77;3326425;84;20968;-72
2021/12/14 13:19:50;;;;;;;72.67;35.80;;;;;;;-1.76;83.53;101535.02;3259150;85;21118;-71
2021/12/14 13:24:45;;;;;;;79.12;35.17;;;;;;;-1.72;83.33;101544.67;3343913;83;26558;-71
2021/12/14 13:30:05;;;;;;;68.25;32.75;;;;;;;-1.72;83.33;101544.67;3319500;85;21038;-71
2021/12/14 13:35:21;;;;;;;70.32;35.63;;;;;;;-1.68;83.57;101545.45;3337156;83;20978;-72
2021/12/14 13:40:23;;;;;;;59.38;31.45;;;;;;;-1.64;83.76;101541.09;3295851;85;21479;-75
2021/12/14 13:45:19;;;;;;;73.07;35.55;;;;;;;-1.67;83.60;101556.14;3283098;85;21472;-71
2021/12/14 13:50:16;;;;;;;66.97;35.40;;;;;;;-1.66;83.83;101552.83;3291720;85;20994;-71
2021/12/14 13:55:16;;;;;;;71.67;34.03;;;;;;;-1.66;83.77;101536.62;3267407;86;20948;-71
2021/12/14 14:00:16;;;;;;;69.17;35.13;;;;;;;-1.70;83.86;101538.42;3335876;84;21909;-71
2021/12/14 14:05:09;;;;;;;74.47;34.95;;;;;;;-1.69;84.05;101547.88;3320877;84;21242;-73
2021/12/14 14:10:03;;;;;;;68.87;34.43;;;;;;;-1.67;84.22;101543.39;3321176;83;21562;-71
2021/12/14 14:14:55;;;;;;;82.37;36.73;;;;;;;-1.66;84.15;101547.73;3322126;84;21492;-72
2021/12/14 14:19:52;;;;;;;72.12;35.13;;;;;;;-1.66;84.14;101552.83;3356855;83;21468;-70
2021/12/14 14:24:48;;;;;;;77.17;35.17;;;;;;;-1.65;84.37;101540.96;3338600;84;21280;-73
2021/12/14 14:29:47;;;;;;;77.15;35.58;;;;;;;-1.67;84.35;101552.70;3350110;84;26609;-73
2021/12/14 14:34:54;;;;;;;66.60;33.02;;;;;;;-1.67;84.49;101547.61;3364953;84;21103;-74
2021/12/14 14:39:54;;;;;;;64.75;31.93;;;;;;;-1.66;84.54;101536.26;3337018;84;21485;-74
2021/12/14 14:44:47;;;;;;;66.87;31.85;;;;;;;-1.66;84.48;101533.70;3367140;84;20940;-74
2021/12/14 14:49:43;;;;;;;74.53;37.70;;;;;;;-1.66;84.62;101524.78;3351377;83;20975;-73
2021/12/14 14:54:41;;;;;;;71.37;33.57;;;;;;;-1.64;84.80;101527.06;3382952;83;21568;-75
2021/12/14 14:59:34;;;;;;;66.10;32.13;;;;;;;-1.66;84.74;101531.16;3376034;84;22078;-75
2021/12/14 15:04:25;;;;;;;60.80;31.80;;;;;;;-1.64;84.83;101534.72;3354119;83;21210;-76
2021/12/14 15:09:29;;;;;;;66.07;32.70;;;;;;;-1.65;84.87;101530.77;3355362;83;20951;-78
2021/12/14 15:14:37;;;;;;;59.35;27.37;;;;;;;-1.65;85.03;101535.86;3290301;83;20912;-74
2021/12/14 15:19:53;;;;;;;49.03;24.67;;;;;;;-1.65;84.97;101539.30;3364892;83;20998;-76
2021/12/14 15:24:54;;;;;;;65.50;33.28;;;;;;;-1.63;85.10;101539.02;3373850;83;21030;-75
2021/12/14 15:30:10;;;;;;;59.88;31.00;;;;;;;-1.60;85.20;101535.84;3349441;84;20968;-81
2021/12/14 15:35:19;;;;;;;59.53;30.75;;;;;;;-1.59;85.20;101542.34;3277961;85;20955;-74
2021/12/14 15:40:27;;;;;;;72.75;36.30;;;;;;;-1.55;85.20;101543.48;3256121;86;21006;-75
2021/12/14 15:45:23;;;;;;;66.72;32.58;;;;;;;-1.53;85.20;101543.20;3232794;86;21359;-78
2021/12/14 15:50:21;;;;;;;66.95;32.13;;;;;;;-1.51;85.10;101542.06;3239609;86;21535;-72
2021/12/14 15:55:12;;;;;;;63.02;31.20;;;;;;;-1.52;85.11;101527.51;3186963;86;20998;-73
2021/12/14 16:00:09;;;;;;;71.82;35.33;;;;;;;-1.51;85.23;101517.44;3212060;86;20967;-73
2021/12/14 16:05:05;;;;;;;61.20;29.82;;;;;;;-1.48;85.26;101516.80;3259620;86;21048;-73
2021/12/14 16:10:08;;;;;;;60.23;28.70;;;;;;;-1.45;85.21;101518.30;3263178;86;21547;-73
2021/12/14 16:15:11;;;;;;;71.53;36.13;;;;;;;-1.47;85.20;101520.72;3312733;85;21226;-77
2021/12/14 16:20:08;;;;;;;62.93;32.08;;;;;;;-1.45;85.30;101520.84;3294346;85;20998;-79
2021/12/14 16:25:07;;;;;;;68.70;34.07;;;;;;;-1.43;85.42;101507.81;3335443;84;21410;-74
2021/12/14 16:29:59;;;;;;;76.33;37.67;;;;;;;-1.42;85.36;101507.06;3358042;83;21031;-72
2021/12/14 16:34:52;;;;;;;81.70;36.20;;;;;;;-1.41;85.44;101502.08;3381986;84;21035;-78
2021/12/14 16:40:06;;;;;;;66.30;32.78;;;;;;;-1.36;85.50;101492.22;3363632;84;21773;-77
2021/12/14 16:45:02;;;;;;;70.57;35.78;;;;;;;-1.32;85.60;101492.98;3458177;80;21543;-79
2021/12/14 16:50:07;;;;;;;78.07;38.50;;;;;;;-1.30;85.65;101497.81;3487493;82;20977;-74
2021/12/14 16:55:13;;;;;;;75.85;39.35;;;;;;;-1.25;85.79;101504.16;3451097;82;20958;-74
2021/12/14 17:00:22;;;;;;;78.15;38.80;;;;;;;-1.22;85.78;101496.72;3489507;82;20971;-74
2021/12/14 17:05:18;;;;;;;69.97;34.80;;;;;;;-1.18;85.90;101488.55;3416385;82;21002;-74
2021/12/14 17:10:27;;;;;;;77.20;37.80;;;;;;;-1.15;85.87;101498.97;3488063;80;20981;-74
2021/12/14 17:15:26;;;;;;;82.80;40.73;;;;;;;-1.14;85.83;101494.77;3489197;82;21476;-74
2021/12/14 17:20:13;;;;;;;70.60;38.92;;;;;;;-1.11;85.89;101494.11;3434586;80;20970;-74
2021/12/14 17:25:10;;;;;;;65.30;32.65;;;;;;;-1.11;85.92;101493.70;3425573;80;20949;-74
2021/12/14 17:30:11;;;;;;;79.25;38.25;;;;;;;-1.07;86.02;101516.53;3505571;80;27229;-73
2021/12/14 17:35:10;;;;;;;77.60;37.88;;;;;;;-1.08;85.97;101510.94;3488078;80;20930;-74
2021/12/14 17:40:16;;;;;;;91.10;42.38;;;;;;;-1.05;86.07;101505.68;3457268;82;20918;-74
2021/12/14 17:45:17;;;;;;;75.72;40.43;;;;;;;-1.01;86.09;101506.41;3491189;80;22112;-73
2021/12/14 17:50:27;;;;;;;80.72;42.25;;;;;;;-1.01;86.01;101500.02;3493623;80;21017;-72
2021/12/14 17:55:26;;;;;;;86.82;42.08;;;;;;;-1.00;86.10;101506.92;3501363;80;21321;-74
2021/12/14 18:00:26;;;;;;;80.32;39.70;;;;;;;-0.96;86.12;101515.70;3463555;82;21537;-74
2021/12/14 18:05:26;;;;;;;75.22;38.90;;;;;;;-0.94;86.10;101509.45;3492944;80;20946;-73
2021/12/14 18:10:22;;;;;;;80.30;38.17;;;;;;;-0.93;86.14;101503.55;3489639;80;20940;-73
2021/12/14 18:15:15;;;;;;;86.27;39.40;;;;;;;-0.89;86.25;101502.62;3467373;82;21012;-72
2021/12/14 18:20:11;;;;;;;84.90;39.45;;;;;;;-0.88;86.16;101496.73;3453273;80;21568;-73
2021/12/14 18:25:10;;;;;;;77.45;38.58;;;;;;;-0.85;86.22;101498.25;3469257;80;20973;-73
2021/12/14 18:30:13;;;;;;;70.17;35.60;;;;;;;-0.85;86.23;101489.31;3439891;80;21513;-73
2021/12/14 18:35:24;;;;;;;87.82;40.15;;;;;;;-0.83;86.31;101497.97;3480605;80;20927;-75
2021/12/14 18:40:37;;;;;;;85.85;37.90;;;;;;;-0.82;86.35;101507.42;3442904;82;20956;-73
2021/12/14 18:45:29;;;;;;;85.12;42.17;;;;;;;-0.78;86.37;101517.08;3482136;80;21471;-74
2021/12/14 18:50:32;;;;;;;94.15;44.25;;;;;;;-0.74;86.43;101516.05;3417849;82;21555;-74
2021/12/14 18:55:38;;;;;;;81.02;40.92;;;;;;;-0.71;86.48;101509.91;3488517;82;20958;-75
2021/12/14 19:00:31;;;;;;;85.50;43.08;;;;;;;-0.68;86.47;101512.66;3480751;81;20971;-74
2021/12/14 19:05:29;;;;;;;83.47;38.70;;;;;;;-0.67;86.46;101512.78;3490585;80;20970;-75
2021/12/14 19:10:28;;;;;;;95.05;47.23;;;;;;;-0.68;86.54;101503.72;3484536;80;21542;-74
2021/12/14 19:15:35;;;;;;;102.50;47.05;;;;;;;-0.66;86.77;101509.47;3482456;80;21448;-74
2021/12/14 19:20:40;;;;;;;88.07;41.25;;;;;;;-0.62;86.70;101513.14;3465995;80;21017;-73
2021/12/14 19:25:33;;;;;;;97.22;45.60;;;;;;;-0.61;86.66;101506.88;3483964;82;20958;-74
2021/12/14 19:30:25;;;;;;;103.78;46.00;;;;;;;-0.56;86.77;101518.69;3408532;82;21121;-74
2021/12/14 19:35:27;;;;;;;102.67;46.65;;;;;;;-0.53;86.80;101501.05;3440853;80;21124;-75
2021/12/14 19:40:45;;;;;;;83.72;41.20;;;;;;;-0.50;86.82;101515.33;3462110;82;21035;-73
2021/12/14 19:45:37;;;;;;;94.50;45.45;;;;;;;-0.48;86.85;101523.99;3455765;80;21005;-74
2021/12/14 19:50:32;;;;;;;93.82;42.65;;;;;;;-0.45;86.92;101524.23;3447205;81;20955;-75
2021/12/14 19:55:28;;;;;;;102.95;48.75;;;;;;;-0.43;86.90;101524.31;3462475;81;21471;-74
2021/12/14 20:00:41;;;;;;;98.55;43.87;;;;;;;-0.41;86.91;101525.34;3488084;80;21077;-73
2021/12/14 20:05:38;;;;;;;106.05;49.20;;;;;;;-0.41;87.00;101535.17;3523748;80;21046;-74
2021/12/14 20:10:30;;;;;;;114.60;47.87;;;;;;;-0.37;87.08;101539.24;3505827;80;20971;-74
2021/12/14 20:15:29;;;;;;;105.63;48.78;;;;;;;-0.34;87.13;101536.89;3505943;79;21444;-73
2021/12/14 20:20:35;;;;;;;104.85;47.23;;;;;;;-0.31;87.13;101533.29;3540873;79;20964;-74
2021/12/14 20:25:33;;;;;;;114.85;48.50;;;;;;;-0.30;87.21;101533.80;3518511;79;20953;-74
2021/12/14 20:30:28;;;;;;;96.70;46.02;;;;;;;-0.27;87.26;101530.17;3488957;79;20979;-73
2021/12/14 20:35:28;;;;;;;101.20;46.85;;;;;;;-0.24;87.27;101520.19;3535952;80;20944;-74
2021/12/14 20:40:21;;;;;;;107.03;48.90;;;;;;;-0.20;87.36;101534.96;3504928;79;20981;-74
2021/12/14 20:45:41;;;;;;;115.30;49.25;;;;;;;-0.17;87.41;101533.91;3448249;80;20994;-74
2021/12/14 20:50:26;;;;;;;106.65;49.93;;;;;;;-0.14;87.40;101534.15;3471129;81;20982;-74
2021/12/14 20:55:22;;;;;;;114.53;51.90;;;;;;;-0.13;87.40;101538.46;3461558;80;21041;-74
2021/12/14 21:00:30;;;;;;;107.32;49.15;;;;;;;-0.09;87.42;101531.54;3517277;80;20968;-74
2021/12/14 21:05:30;;;;;;;105.58;48.40;;;;;;;-0.07;87.40;101523.59;3510542;80;21559;-74
2021/12/14 21:10:22;;;;;;;105.20;50.85;;;;;;;-0.04;87.42;101524.19;3468442;81;20943;-73
2021/12/14 21:15:22;;;;;;;111.17;50.25;;;;;;;-0.03;87.41;101508.97;3465170;81;21098;-74
2021/12/14 21:20:18;;;;;;;120.55;51.25;;;;;;;-0.02;87.45;101500.53;3493064;81;20966;-74
2021/12/14 21:25:18;;;;;;;126.00;52.13;;;;;;;0.02;87.48;101520.81;3511781;81;20982;-73
2021/12/14 21:30:14;;;;;;;119.87;53.00;;;;;;;0.03;87.50;101526.41;3485405;81;20978;-74
2021/12/14 21:35:29;;;;;;;104.40;50.83;;;;;;;0.04;87.49;101526.05;3489215;80;20954;-75
2021/12/14 21:40:51;;;;;;;113.55;53.45;;;;;;;0.05;87.53;101512.46;3507854;81;20974;-73
2021/12/14 21:45:52;;;;;;;110.10;49.83;;;;;;;0.09;87.58;101519.56;3511424;79;20970;-74
2021/12/14 21:50:35;;;;;;;111.60;49.63;;;;;;;0.11;87.61;101506.52;3540974;79;20968;-74
2021/12/14 21:55:28;;;;;;;108.35;48.70;;;;;;;0.12;87.62;101516.84;3468312;79;20952;-75
2021/12/14 22:00:25;;;;;;;122.07;53.28;;;;;;;0.14;87.60;101518.23;3553043;79;20935;-73
2021/12/14 22:05:18;;;;;;;107.17;52.08;;;;;;;0.16;87.58;101511.55;3540267;79;21064;-74
2021/12/14 22:10:14;;;;;;;113.45;50.90;;;;;;;0.17;87.61;101521.02;3477920;79;20939;-74
2021/12/14 22:15:11;;;;;;;118.10;52.90;;;;;;;0.19;87.64;101525.84;3515602;79;21006;-74
2021/12/14 22:20:08;;;;;;;107.25;50.25;;;;;;;0.20;87.58;101518.69;3531544;79;20941;-74
2021/12/14 22:24:59;;;;;;;122.43;50.63;;;;;;;0.19;87.55;101525.84;3519939;80;20923;-74
2021/12/14 22:29:50;;;;;;;118.80;49.30;;;;;;;0.23;87.60;101532.07;3478622;80;20967;-74
2021/12/14 22:34:46;;;;;;;127.85;53.28;;;;;;;0.23;87.61;101532.95;3483445;80;20914;-74
2021/12/14 22:39:40;;;;;;;110.75;50.43;;;;;;;0.24;87.59;101513.41;3546997;79;21487;-75
2021/12/14 22:44:38;;;;;;;115.92;52.13;;;;;;;0.25;87.57;101508.77;3475520;78;21181;-74
2021/12/14 22:49:32;;;;;;;114.88;51.05;;;;;;;0.24;87.53;101513.00;3581300;79;20906;-74
2021/12/14 22:54:24;;;;;;;106.97;50.45;;;;;;;0.25;87.66;101508.40;3538497;79;20984;-73
2021/12/14 22:59:16;;;;;;;122.42;54.03;;;;;;;0.26;87.60;101511.44;3427290;81;20954;-74
2021/12/14 23:04:17;;;;;;;110.37;52.00;;;;;;;0.29;87.68;101521.02;3529595;79;20907;-74
2021/12/14 23:09:16;;;;;;;110.15;50.23;;;;;;;0.32;87.66;101512.26;3576163;78;21049;-74
2021/12/14 23:14:15;;;;;;;108.72;51.13;;;;;;;0.33;87.70;101497.02;3583782;79;20948;-74